Time;durP1;ratioP1;P1;durP2;ratioP2;P2;SDS_P1;SDS_P2;PMS_P1;PMS_P2;Temp;Humidity;BMP_temperature;BMP_pressure;BME280_temperature;BME280_humidity;BME280_pressure;Samples;Min_cycle;Max_cycle;Signal;HPM_P1;HPM_P2
2023/10/03 00:00:24;;;;;;;0.00;0.00;;;;;;;26.42;58.19;101102.50;5064589;28;20404;-62
2023/10/03 00:02:57;;;;;;;0.00;0.00;;;;;;;26.42;58.70;101091.47;5051813;28;20113;-63
2023/10/03 00:05:28;;;;;;;0.00;0.00;;;;;;;26.25;58.82;101092.31;5051967;28;20033;-62
2023/10/03 00:07:54;;;;;;;0.00;0.00;;;;;;;26.75;57.02;101092.63;5051339;28;20040;-63
2023/10/03 00:10:20;;;;;;;0.00;0.00;;;;;;;26.58;57.65;101090.66;5051646;28;20361;-64
2023/10/03 00:12:51;;;;;;;0.00;0.00;;;;;;;26.37;58.34;101081.44;5050541;28;20033;-62
2023/10/03 00:15:16;;;;;;;;;;;;;;;26.41;58.29;101081.59;5051322;28;20098;-63
2023/10/03 00:17:42;;;;;;;0.00;0.00;;;;;;;26.49;57.74;101067.81;5048284;28;19962;-64
2023/10/03 00:20:11;;;;;;;0.00;0.00;;;;;;;26.27;58.90;101061.66;5051058;28;20075;-62
2023/10/03 00:22:38;;;;;;;0.00;0.00;;;;;;;26.48;57.55;101055.16;5051261;28;20124;-63
2023/10/03 00:25:05;;;;;;;0.00;0.00;;;;;;;26.37;57.57;101047.56;5051122;28;20420;-63
2023/10/03 00:27:35;;;;;;;0.00;0.00;;;;;;;26.51;57.33;101042.69;5051329;28;20491;-62
2023/10/03 00:30:00;;;;;;;0.00;0.00;;;;;;;26.59;57.00;101037.16;5051594;28;20029;-63
2023/10/03 00:32:26;;;;;;;0.00;0.00;;;;;;;25.69;59.46;101040.03;5051005;28;20065;-62
2023/10/03 00:34:51;;;;;;;0.00;0.00;;;;;;;26.17;59.04;101029.72;5050669;28;20543;-63
2023/10/03 00:37:16;;;;;;;0.00;0.00;;;;;;;26.41;58.04;101029.22;5050879;28;20021;-62
2023/10/03 00:39:43;;;;;;;0.00;0.00;;;;;;;26.31;57.72;101015.78;5050483;28;20586;-62
2023/10/03 00:42:09;;;;;;;0.00;0.00;;;;;;;26.10;58.08;100993.63;5055124;28;20431;-63
2023/10/03 00:44:37;;;;;;;0.08;0.08;;;;;;;26.17;58.22;100984.84;5070337;28;20561;-64
2023/10/03 00:47:06;;;;;;;0.00;0.00;;;;;;;26.47;57.04;100972.81;5049919;28;20080;-62
2023/10/03 00:49:31;;;;;;;0.00;0.00;;;;;;;26.55;57.15;100961.75;5070512;28;20036;-63
2023/10/03 00:51:57;;;;;;;0.00;0.00;;;;;;;26.18;57.76;100958.91;5070500;28;20060;-63
2023/10/03 00:54:23;;;;;;;0.00;0.00;;;;;;;26.46;56.64;100962.91;5070588;28;20549;-63
2023/10/03 00:56:49;;;;;;;0.00;0.00;;;;;;;26.30;56.90;100965.38;5070899;28;20025;-63
2023/10/03 00:59:14;;;;;;;0.00;0.00;;;;;;;25.74;58.73;100969.13;5070446;28;20381;-62
2023/10/03 01:01:41;;;;;;;0.00;0.00;;;;;;;26.38;56.66;100955.47;5052003;28;20045;-64
2023/10/03 01:04:11;;;;;;;0.05;0.05;;;;;;;25.52;59.24;100949.16;5050720;28;20624;-62
2023/10/03 01:06:36;;;;;;;0.00;0.00;;;;;;;26.00;57.90;100945.13;5050705;28;20025;-63
2023/10/03 01:09:03;;;;;;;0.00;0.00;;;;;;;25.77;58.12;100940.91;5051281;28;20027;-64
2023/10/03 01:11:29;;;;;;;0.00;0.00;;;;;;;25.96;57.40;100924.88;5055804;28;20119;-64
2023/10/03 01:13:59;;;;;;;0.00;0.00;;;;;;;25.53;59.36;100926.03;5071568;28;20032;-64
2023/10/03 01:16:33;;;;;;;0.00;0.00;;;;;;;25.40;59.71;100913.19;5072152;28;20155;-62
2023/10/03 01:18:59;;;;;;;0.00;0.00;;;;;;;25.18;60.04;100912.16;5053421;28;20033;-64
2023/10/03 01:21:28;;;;;;;0.00;0.00;;;;;;;25.91;57.77;100899.44;5071411;28;20028;-63
2023/10/03 01:23:54;;;;;;;0.00;0.00;;;;;;;25.94;57.44;100896.88;5053578;28;20095;-63
2023/10/03 01:26:21;;;;;;;0.00;0.00;;;;;;;25.39;59.33;100884.88;5071415;28;20044;-64
2023/10/03 01:28:46;;;;;;;0.00;0.00;;;;;;;25.82;57.48;100873.88;5071117;28;20067;-62
2023/10/03 01:31:11;;;;;;;0.00;0.00;;;;;;;25.85;56.81;100868.50;5070285;28;20480;-62
2023/10/03 01:33:37;;;;;;;0.00;0.00;;;;;;;25.91;57.07;100871.91;5069901;28;20028;-64
2023/10/03 01:36:03;;;;;;;0.00;0.00;;;;;;;25.50;58.55;100846.84;5070323;28;20051;-63
2023/10/03 01:38:29;;;;;;;0.00;0.00;;;;;;;25.71;57.80;100850.56;5069536;28;20047;-64
2023/10/03 01:41:00;;;;;;;0.00;0.00;;;;;;;25.66;57.89;100847.97;5069650;28;20044;-63
2023/10/03 01:43:27;;;;;;;0.00;0.00;;;;;;;25.23;59.04;100842.44;5069639;28;20512;-63
2023/10/03 01:45:53;;;;;;;0.00;0.00;;;;;;;25.89;57.12;100839.19;5069672;28;20028;-63
2023/10/03 01:48:19;;;;;;;0.00;0.00;;;;;;;25.82;56.70;100838.06;5070123;28;20044;-64
2023/10/03 01:50:44;;;;;;;0.00;0.00;;;;;;;26.01;56.16;100819.22;5069593;28;20415;-64
2023/10/03 01:53:11;;;;;;;0.00;0.00;;;;;;;26.09;55.60;100824.75;5068932;28;20112;-64
2023/10/03 01:55:37;;;;;;;0.10;0.10;;;;;;;25.96;56.39;100811.16;5069667;28;20040;-63
2023/10/03 01:58:04;;;;;;;0.00;0.00;;;;;;;25.89;56.31;100805.31;5058477;28;20082;-63
2023/10/03 02:00:30;;;;;;;0.00;0.00;;;;;;;25.71;56.90;100804.56;5049353;28;20460;-63
2023/10/03 02:02:57;;;;;;;0.10;0.10;;;;;;;25.82;56.33;100796.78;5049709;28;20041;-62
2023/10/03 02:05:25;;;;;;;0.08;0.08;;;;;;;26.01;56.35;100791.69;5049476;28;20307;-62
2023/10/03 02:07:51;;;;;;;0.00;0.00;;;;;;;25.92;56.30;100777.16;5049256;28;20067;-64
2023/10/03 02:10:20;;;;;;;0.00;0.00;;;;;;;25.97;56.03;100769.50;5031428;28;20079;-63
2023/10/03 02:12:51;;;;;;;0.00;0.00;;;;;;;25.68;57.14;100771.38;5044722;28;20459;-64
2023/10/03 02:15:24;;;;;;;0.00;0.00;;;;;;;25.39;57.81;100755.53;5069963;28;20035;-63
2023/10/03 02:17:51;;;;;;;0.00;0.00;;;;;;;25.85;56.54;100755.63;5069779;28;20032;-62
2023/10/03 02:20:25;;;;;;;0.00;0.00;;;;;;;25.58;57.34;100758.78;5051152;28;20143;-62
2023/10/03 02:22:54;;;;;;;0.10;0.10;;;;;;;25.73;56.62;100761.00;5068971;28;20053;-62
2023/10/03 02:25:22;;;;;;;0.00;0.00;;;;;;;25.97;56.11;100763.19;5069166;28;20500;-63
2023/10/03 02:27:49;;;;;;;0.00;0.00;;;;;;;25.87;56.02;100753.34;5069353;28;20396;-63
2023/10/03 02:30:19;;;;;;;0.00;0.00;;;;;;;25.73;56.42;100746.44;5069715;28;20040;-65
2023/10/03 02:32:49;;;;;;;0.00;0.00;;;;;;;25.11;58.69;100754.25;5069223;28;20106;-64
2023/10/03 02:35:14;;;;;;;0.00;0.00;;;;;;;24.77;60.22;100744.03;5069303;28;20616;-63
2023/10/03 02:37:39;;;;;;;0.00;0.00;;;;;;;25.03;59.26;100731.13;5068536;28;20032;-64
2023/10/03 02:40:07;;;;;;;0.00;0.00;;;;;;;24.97;59.36;100737.91;5051714;28;20560;-63
2023/10/03 02:42:38;;;;;;;0.00;0.00;;;;;;;25.41;57.59;100738.72;5056448;28;20036;-62
2023/10/03 02:45:04;;;;;;;0.00;0.00;;;;;;;25.87;56.19;100734.06;5069273;28;20108;-63
2023/10/03 02:47:29;;;;;;;0.00;0.00;;;;;;;25.61;57.04;100732.53;5050743;28;20086;-64
2023/10/03 02:49:55;;;;;;;0.00;0.00;;;;;;;25.17;58.49;100725.47;5068417;28;20730;-63
2023/10/03 02:52:21;;;;;;;0.00;0.00;;;;;;;24.65;59.77;100730.09;5068866;28;20047;-64
2023/10/03 02:54:48;;;;;;;0.00;0.00;;;;;;;25.26;57.93;100721.56;5068561;28;20061;-63
2023/10/03 02:57:15;;;;;;;0.00;0.00;;;;;;;25.57;56.95;100723.31;5069248;28;20035;-62
2023/10/03 02:59:44;;;;;;;0.05;0.05;;;;;;;24.82;59.62;100727.41;5066469;28;20078;-63
2023/10/03 03:02:14;;;;;;;0.00;0.00;;;;;;;25.58;56.68;100725.75;5030142;28;20049;-65
2023/10/03 03:04:43;;;;;;;0.00;0.00;;;;;;;25.27;58.20;100731.44;5049769;28;20068;-64
2023/10/03 03:07:09;;;;;;;0.00;0.00;;;;;;;25.24;57.70;100715.56;5034958;28;20061;-63
2023/10/03 03:09:36;;;;;;;0.00;0.00;;;;;;;25.49;57.44;100702.13;5033952;28;20519;-63
2023/10/03 03:12:04;;;;;;;0.00;0.00;;;;;;;25.33;57.65;100723.00;5061400;28;20025;-64
2023/10/03 03:14:30;;;;;;;0.00;0.00;;;;;;;25.07;58.52;100734.84;5073086;28;20032;-64
2023/10/03 03:16:56;;;;;;;0.00;0.00;;;;;;;25.53;57.17;100736.13;5072727;28;20377;-63
2023/10/03 03:19:23;;;;;;;0.08;0.08;;;;;;;24.96;59.19;100721.75;5072474;28;20033;-63
2023/10/03 03:21:50;;;;;;;0.00;0.00;;;;;;;25.32;57.88;100710.41;5072368;28;20032;-63
2023/10/03 03:24:15;;;;;;;0.00;0.00;;;;;;;25.54;56.94;100704.69;5072430;28;20408;-62
2023/10/03 03:26:47;;;;;;;0.10;0.10;;;;;;;24.97;59.05;100690.34;5072924;28;20028;-62
2023/10/03 03:29:22;;;;;;;0.10;0.10;;;;;;;25.54;57.09;100697.25;5072397;28;20049;-63
2023/10/03 03:31:52;;;;;;;0.00;0.00;;;;;;;24.28;61.77;100690.28;5071924;28;20504;-63
2023/10/03 03:34:17;;;;;;;;;;;;;;;24.69;60.32;100686.28;5070906;28;20048;-64
2023/10/03 03:36:46;;;;;;;0.00;0.00;;;;;;;25.28;58.74;100677.22;5072454;28;19912;-63
2023/10/03 03:39:16;;;;;;;0.00;0.00;;;;;;;25.03;59.16;100670.63;5071971;28;20032;-64
2023/10/03 03:41:42;;;;;;;0.10;0.10;;;;;;;25.44;57.54;100672.84;5072177;28;20033;-62
2023/10/03 03:44:11;;;;;;;0.00;0.00;;;;;;;25.11;59.03;100669.81;5051811;28;20029;-63
2023/10/03 03:46:40;;;;;;;0.00;0.00;;;;;;;25.23;58.97;100666.41;5051957;28;20030;-64
2023/10/03 03:49:06;;;;;;;0.10;0.10;;;;;;;24.70;60.84;100654.94;5051786;28;20083;-63
2023/10/03 03:51:31;;;;;;;0.10;0.10;;;;;;;25.70;57.15;100667.25;5033262;28;20067;-62
2023/10/03 03:53:59;;;;;;;0.00;0.00;;;;;;;25.54;58.41;100660.66;5051649;28;20464;-63
2023/10/03 03:56:24;;;;;;;0.00;0.00;;;;;;;25.57;58.18;100652.56;5052376;28;20024;-63
2023/10/03 03:58:50;;;;;;;0.00;0.00;;;;;;;25.52;58.43;100662.94;5068890;28;20074;-63
2023/10/03 04:01:17;;;;;;;0.00;0.00;;;;;;;25.00;61.10;100662.22;5056940;28;20036;-63
2023/10/03 04:03:43;;;;;;;0.00;0.00;;;;;;;25.62;58.56;100663.41;5059527;28;20037;-63
2023/10/03 04:06:09;;;;;;;0.00;0.00;;;;;;;25.47;58.94;100682.38;5061240;28;20098;-64
2023/10/03 04:08:35;;;;;;;0.00;0.00;;;;;;;25.62;59.02;100670.84;5066921;28;20028;-64
2023/10/03 04:11:02;;;;;;;0.00;0.00;;;;;;;25.40;59.29;100657.31;5066912;28;20119;-64
2023/10/03 04:13:30;;;;;;;0.00;0.00;;;;;;;25.85;57.74;100674.94;5083478;28;20449;-63
2023/10/03 04:15:58;;;;;;;0.00;0.00;;;;;;;25.50;58.46;100662.47;5070300;28;20131;-63
2023/10/03 04:18:23;;;;;;;0.00;0.00;;;;;;;25.23;59.86;100674.66;5051790;28;20036;-64
2023/10/03 04:20:49;;;;;;;0.00;0.00;;;;;;;26.00;57.84;100671.66;5071346;28;20032;-64
2023/10/03 04:23:14;;;;;;;0.00;0.00;;;;;;;26.05;57.11;100682.47;5072272;28;20040;-64
2023/10/03 04:25:40;;;;;;;0.00;0.00;;;;;;;25.36;59.38;100681.88;5071521;28;20044;-64
2023/10/03 04:28:07;;;;;;;0.00;0.00;;;;;;;25.33;59.49;100690.00;5071275;28;20037;-62
2023/10/03 04:30:33;;;;;;;0.00;0.00;;;;;;;25.24;59.93;100685.31;5070878;28;20127;-65
2023/10/03 04:32:58;;;;;;;0.00;0.00;;;;;;;25.40;59.43;100698.56;5051075;28;20104;-64
2023/10/03 04:35:25;;;;;;;0.00;0.00;;;;;;;25.14;60.70;100690.34;5051379;28;20016;-61
2023/10/03 04:37:52;;;;;;;0.00;0.00;;;;;;;25.50;59.75;100696.28;5050887;28;20575;-63
2023/10/03 04:40:22;;;;;;;0.00;0.00;;;;;;;25.11;60.70;100699.25;5050666;28;20106;-62
2023/10/03 04:42:50;;;;;;;0.00;0.00;;;;;;;25.26;60.77;100690.47;5060106;28;20040;-63
2023/10/03 04:45:19;;;;;;;0.00;0.00;;;;;;;24.90;62.14;100707.34;5071131;28;20139;-62
2023/10/03 04:47:45;;;;;;;0.00;0.00;;;;;;;25.08;60.99;100697.94;5068127;28;20116;-64
2023/10/03 04:50:11;;;;;;;0.00;0.00;;;;;;;25.00;61.57;100708.97;5065063;28;20040;-64
2023/10/03 04:52:38;;;;;;;0.00;0.00;;;;;;;25.26;61.39;100713.31;5064750;28;20159;-65
2023/10/03 04:55:03;;;;;;;0.00;0.00;;;;;;;25.11;61.22;100713.81;5061954;28;20056;-64
2023/10/03 04:57:29;;;;;;;0.00;0.00;;;;;;;24.57;64.24;100725.38;5062428;28;20033;-64
2023/10/03 05:00:01;;;;;;;0.00;0.00;;;;;;;24.49;64.48;100731.69;5062498;28;20025;-65
2023/10/03 05:02:28;;;;;;;0.00;0.00;;;;;;;25.00;62.54;100719.97;5063606;28;20510;-64
2023/10/03 05:04:54;;;;;;;0.00;0.00;;;;;;;24.37;65.59;100726.03;5061985;28;20055;-64
2023/10/03 05:07:19;;;;;;;0.00;0.00;;;;;;;25.54;60.98;100751.47;5070478;28;20028;-63
2023/10/03 05:09:45;;;;;;;0.00;0.00;;;;;;;25.13;62.29;100725.31;5070867;28;20442;-64
2023/10/03 05:12:10;;;;;;;0.00;0.00;;;;;;;24.88;62.95;100717.88;5061099;28;20036;-64
2023/10/03 05:14:40;;;;;;;0.00;0.00;;;;;;;24.87;63.84;100721.75;5033894;28;20032;-63
2023/10/03 05:17:07;;;;;;;0.00;0.00;;;;;;;24.93;63.78;100734.19;5068766;28;20047;-64
2023/10/03 05:19:32;;;;;;;0.00;0.00;;;;;;;24.65;65.04;100743.84;5071246;28;20035;-64
2023/10/03 05:21:58;;;;;;;0.00;0.00;;;;;;;24.39;64.93;100752.03;5071349;28;20476;-61
2023/10/03 05:24:24;;;;;;;0.10;0.10;;;;;;;24.29;64.75;100744.06;5070143;28;20037;-65
2023/10/03 05:26:49;;;;;;;0.00;0.00;;;;;;;24.22;65.86;100742.91;5070699;28;20028;-64
2023/10/03 05:29:16;;;;;;;0.00;0.00;;;;;;;24.36;64.74;100735.38;5066739;28;20052;-62
2023/10/03 05:31:42;;;;;;;0.00;0.00;;;;;;;24.83;63.34;100719.94;5068981;28;20560;-62
2023/10/03 05:34:08;;;;;;;0.00;0.00;;;;;;;25.17;62.22;100741.97;5070176;28;20036;-63
2023/10/03 05:36:34;;;;;;;0.00;0.00;;;;;;;25.44;61.26;100749.88;5070436;28;20107;-63
2023/10/03 05:39:00;;;;;;;0.00;0.00;;;;;;;24.56;64.14;100748.53;5070136;28;20379;-63
2023/10/03 05:41:25;;;;;;;0.00;0.00;;;;;;;24.58;63.77;100740.75;5070664;28;20039;-61
2023/10/03 05:43:52;;;;;;;0.00;0.00;;;;;;;24.22;64.43;100735.50;5067468;28;20491;-62
2023/10/03 05:46:17;;;;;;;0.00;0.00;;;;;;;24.31;63.89;100760.25;5070394;28;20024;-63
2023/10/03 05:48:53;;;;;;;0.00;0.00;;;;;;;24.24;63.37;100757.97;5088356;27;20701;-62
2023/10/03 05:51:20;;;;;;;0.00;0.00;;;;;;;24.15;63.72;100750.81;5066769;28;20461;-62
2023/10/03 05:53:46;;;;;;;0.00;0.00;;;;;;;24.46;62.43;100739.75;5066927;28;20073;-63
2023/10/03 05:56:11;;;;;;;0.00;0.00;;;;;;;24.07;63.48;100751.59;5066939;28;20017;-62
2023/10/03 05:58:37;;;;;;;0.00;0.00;;;;;;;24.99;60.03;100763.16;5067266;28;20041;-63
2023/10/03 06:01:04;;;;;;;0.00;0.00;;;;;;;24.85;59.99;100754.25;5071627;28;20041;-64
2023/10/03 06:03:29;;;;;;;0.00;0.00;;;;;;;23.90;64.12;100755.03;5073004;28;20502;-63
2023/10/03 06:05:55;;;;;;;0.00;0.00;;;;;;;25.24;59.77;100762.34;5067219;28;20036;-61
2023/10/03 06:08:21;;;;;;;0.00;0.00;;;;;;;24.23;63.01;100777.50;5066967;28;20025;-62
2023/10/03 06:10:49;;;;;;;0.00;0.00;;;;;;;24.75;61.25;100767.47;5083066;28;20044;-63
2023/10/03 06:13:15;;;;;;;0.00;0.00;;;;;;;24.46;62.16;100779.03;5073833;28;20021;-63
2023/10/03 06:15:41;;;;;;;0.00;0.00;;;;;;;24.29;62.94;100768.78;5063535;28;20377;-62
2023/10/03 06:18:08;;;;;;;0.00;0.00;;;;;;;24.21;62.74;100782.50;5069486;28;20067;-63
2023/10/03 06:20:34;;;;;;;0.00;0.00;;;;;;;24.05;62.77;100795.03;5088769;28;20028;-63
2023/10/03 06:23:00;;;;;;;0.00;0.00;;;;;;;24.01;63.20;100791.25;5088166;28;20047;-64
2023/10/03 06:25:25;;;;;;;0.00;0.00;;;;;;;23.99;64.08;100799.00;5066567;28;20037;-62
2023/10/03 06:27:51;;;;;;;0.00;0.00;;;;;;;23.70;64.50;100815.16;5066190;28;20039;-63
2023/10/03 06:30:17;;;;;;;0.00;0.00;;;;;;;24.35;62.17;100792.25;5047757;28;20574;-61
2023/10/03 06:32:44;;;;;;;0.00;0.00;;;;;;;24.39;62.10;100797.94;5066841;28;20361;-62
2023/10/03 06:35:09;;;;;;;0.00;0.00;;;;;;;24.47;62.01;100801.84;5066059;28;20032;-64
2023/10/03 06:37:35;;;;;;;0.00;0.00;;;;;;;24.12;63.11;100806.34;5066253;28;20342;-62
2023/10/03 06:40:06;;;;;;;0.00;0.00;;;;;;;23.94;64.20;100808.19;5047816;28;20057;-64
2023/10/03 06:42:33;;;;;;;0.00;0.00;;;;;;;24.23;62.75;100788.50;5054572;28;20132;-63
2023/10/03 06:44:58;;;;;;;0.00;0.00;;;;;;;24.47;62.73;100808.13;5084285;28;20031;-62
2023/10/03 06:47:24;;;;;;;0.00;0.00;;;;;;;24.83;61.71;100803.25;5066247;28;20048;-63
2023/10/03 06:49:50;;;;;;;0.00;0.00;;;;;;;24.50;62.47;100814.91;5065854;28;20029;-64
2023/10/03 06:52:15;;;;;;;0.10;0.10;;;;;;;24.89;61.15;100812.13;5065927;28;20033;-61
2023/10/03 06:54:42;;;;;;;0.00;0.00;;;;;;;24.88;61.01;100827.03;5065802;28;20098;-62
2023/10/03 06:57:07;;;;;;;0.00;0.00;;;;;;;24.92;60.89;100806.00;5068802;28;20047;-62
2023/10/03 06:59:33;;;;;;;0.00;0.00;;;;;;;24.89;60.77;100825.88;5076775;28;20531;-62
2023/10/03 07:01:59;;;;;;;0.00;0.00;;;;;;;24.26;63.12;100834.53;5072575;28;20036;-63
2023/10/03 07:04:24;;;;;;;0.00;0.00;;;;;;;24.38;62.78;100848.50;5051415;28;20041;-64
2023/10/03 07:06:50;;;;;;;0.00;0.00;;;;;;;24.12;63.66;100848.38;5051252;28;20563;-63
2023/10/03 07:09:17;;;;;;;0.00;0.00;;;;;;;24.14;63.63;100857.09;5051569;28;20033;-62
2023/10/03 07:11:42;;;;;;;0.00;0.00;;;;;;;23.98;64.64;100842.13;5052196;28;20036;-62
2023/10/03 07:14:14;;;;;;;0.00;0.00;;;;;;;23.95;64.43;100840.00;5051192;28;20063;-63
2023/10/03 07:16:41;;;;;;;0.00;0.00;;;;;;;24.63;62.39;100849.75;5051234;28;20045;-63
2023/10/03 07:19:09;;;;;;;0.00;0.00;;;;;;;24.38;62.93;100849.31;5071263;28;20101;-65
2023/10/03 07:21:34;;;;;;;0.00;0.00;;;;;;;24.70;62.15;100861.06;5052691;28;20288;-62
2023/10/03 07:24:00;;;;;;;0.00;0.00;;;;;;;24.27;62.90;100860.91;5033197;28;20029;-63
2023/10/03 07:26:27;;;;;;;0.00;0.00;;;;;;;24.31;63.51;100850.91;5051546;28;20020;-62
2023/10/03 07:28:57;;;;;;;0.00;0.00;;;;;;;24.64;61.63;100843.91;5050836;28;20353;-62
2023/10/03 07:31:22;;;;;;;0.10;0.10;;;;;;;24.52;62.10;100867.63;5051093;28;20408;-63
2023/10/03 07:33:48;;;;;;;0.00;0.00;;;;;;;24.72;61.56;100864.31;5051000;28;20036;-63
2023/10/03 07:36:17;;;;;;;0.00;0.00;;;;;;;24.13;63.48;100882.97;5051331;28;20043;-62
2023/10/03 07:38:42;;;;;;;0.00;0.00;;;;;;;24.08;63.71;100893.22;5051708;28;20473;-64
2023/10/03 07:41:13;;;;;;;0.00;0.00;;;;;;;24.19;63.78;100878.97;5050993;28;20095;-63
2023/10/03 07:43:39;;;;;;;0.00;0.00;;;;;;;23.87;64.94;100898.41;5051765;28;20386;-61
2023/10/03 07:46:05;;;;;;;0.00;0.00;;;;;;;24.04;64.31;100894.97;5051874;28;20495;-63
2023/10/03 07:48:30;;;;;;;0.00;0.00;;;;;;;23.32;66.42;100895.03;5051250;28;20037;-62
2023/10/03 07:50:56;;;;;;;0.00;0.00;;;;;;;23.75;65.55;100891.84;5051774;28;20040;-64
2023/10/03 07:53:21;;;;;;;0.00;0.00;;;;;;;24.08;64.55;100902.28;5052287;28;20048;-63
2023/10/03 07:55:47;;;;;;;0.00;0.00;;;;;;;24.62;62.32;100928.63;5051779;28;20044;-62
2023/10/03 07:58:14;;;;;;;0.00;0.00;;;;;;;23.83;65.03;100916.63;5062665;28;20036;-64
2023/10/03 08:00:40;;;;;;;0.00;0.00;;;;;;;23.31;68.70;100918.09;5051617;28;20045;-64
2023/10/03 08:03:08;;;;;;;0.00;0.00;;;;;;;23.43;69.79;100934.84;5051773;28;20220;-65
2023/10/03 08:05:34;;;;;;;0.00;0.00;;;;;;;23.00;72.68;100949.16;5052186;28;20021;-63
2023/10/03 08:08:02;;;;;;;0.00;0.00;;;;;;;22.75;74.34;100947.75;5051425;28;20123;-64
2023/10/03 08:10:30;;;;;;;0.10;0.10;;;;;;;23.64;70.85;100956.34;5050265;28;20033;-63
2023/10/03 08:12:55;;;;;;;0.00;0.00;;;;;;;23.67;70.12;100975.72;5051124;28;20028;-62
2023/10/03 08:15:23;;;;;;;0.10;0.10;;;;;;;22.18;75.41;100995.56;5068866;28;20515;-65
2023/10/03 08:17:53;;;;;;;0.10;0.10;;;;;;;23.14;72.78;101010.28;5050999;28;20032;-62
2023/10/03 08:20:21;;;;;;;0.00;0.00;;;;;;;22.74;73.09;101002.84;5051220;28;20626;-62
2023/10/03 08:22:55;;;;;;;0.10;0.10;;;;;;;23.70;68.86;101013.53;5050991;28;20041;-62
2023/10/03 08:25:25;;;;;;;0.00;0.00;;;;;;;23.75;68.05;101016.16;5032164;28;20086;-63
2023/10/03 08:27:51;;;;;;;0.00;0.00;;;;;;;23.96;67.34;101024.78;5050902;28;20029;-63
2023/10/03 08:30:28;;;;;;;0.00;0.00;;;;;;;24.07;67.01;101031.66;5051527;28;20155;-63
2023/10/03 08:33:05;;;;;;;0.00;0.00;;;;;;;22.91;71.35;101041.44;5050703;28;20061;-62
2023/10/03 08:35:40;;;;;;;0.00;0.00;;;;;;;22.86;72.19;101052.50;5050855;28;20025;-72
2023/10/03 08:38:07;;;;;;;0.00;0.00;;;;;;;23.45;68.96;101036.84;5050477;28;20389;-72
2023/10/03 08:40:38;;;;;;;0.10;0.10;;;;;;;21.46;76.98;101040.59;5050796;28;20083;-71
2023/10/03 08:43:08;;;;;;;0.00;0.00;;;;;;;20.75;79.06;101075.22;5050751;28;20071;-71
2023/10/03 08:45:39;;;;;;;0.10;0.10;;;;;;;20.87;79.91;101086.59;5050976;28;20043;-72
2023/10/03 08:48:08;;;;;;;0.10;0.10;;;;;;;20.97;78.65;101076.38;5051367;28;20100;-72
2023/10/03 08:50:39;;;;;;;0.17;0.17;;;;;;;21.36;77.14;101087.22;5050648;28;20040;-72
2023/10/03 08:53:17;;;;;;;0.10;0.10;;;;;;;22.00;74.96;101108.59;5051130;28;20032;-74
2023/10/03 08:55:44;;;;;;;0.05;0.05;;;;;;;21.68;73.86;101120.19;5050572;28;20044;-73
2023/10/03 08:58:13;;;;;;;0.03;0.03;;;;;;;21.99;73.35;101130.78;5062063;28;20051;-74
2023/10/03 09:00:47;;;;;;;0.10;0.10;;;;;;;22.26;72.53;101130.97;5070471;28;20032;-71
2023/10/03 09:03:15;;;;;;;0.10;0.10;;;;;;;22.61;71.13;101130.47;5070712;28;20017;-73
2023/10/03 09:05:41;;;;;;;0.10;0.10;;;;;;;22.00;72.83;101143.34;5052377;28;20455;-73
2023/10/03 09:08:10;;;;;;;0.10;0.10;;;;;;;22.06;73.27;101150.41;5070222;28;20041;-72
2023/10/03 09:10:50;;;;;;;0.03;0.03;;;;;;;22.55;70.62;101154.34;5069940;28;20060;-72
2023/10/03 09:13:23;;;;;;;0.10;0.10;;;;;;;22.12;71.07;101168.38;5051277;28;20208;-73
2023/10/03 09:15:49;;;;;;;0.10;0.10;;;;;;;20.84;76.17;101178.13;5050165;28;20064;-74
2023/10/03 09:18:21;;;;;;;0.20;0.20;;;;;;;20.17;78.12;101199.00;5050602;28;20127;-72
2023/10/03 09:20:49;;;;;;;0.10;0.10;;;;;;;20.66;78.34;101208.84;5050245;28;20117;-72
2023/10/03 09:23:17;;;;;;;0.10;0.10;;;;;;;20.33;79.13;101216.94;5049892;28;20063;-72
2023/10/03 09:25:48;;;;;;;0.15;0.15;;;;;;;20.64;79.14;101211.03;5049995;28;20041;-71
2023/10/03 09:28:14;;;;;;;0.10;0.10;;;;;;;20.46;78.71;101230.81;5049913;28;20039;-72
2023/10/03 09:30:40;;;;;;;0.10;0.10;;;;;;;20.89;77.15;101227.25;5049887;28;20480;-71
2023/10/03 09:33:11;;;;;;;0.10;0.10;;;;;;;21.42;76.44;101217.31;5050610;28;20032;-73
2023/10/03 09:35:39;;;;;;;0.10;0.10;;;;;;;21.31;75.79;101223.13;5049990;28;20037;-71
2023/10/03 09:38:08;;;;;;;0.10;0.10;;;;;;;21.56;75.21;101225.66;5031798;28;20083;-71
2023/10/03 09:40:49;;;;;;;0.10;0.10;;;;;;;21.82;74.75;101232.50;5049774;28;20041;-72
2023/10/03 09:43:16;;;;;;;0.10;0.10;;;;;;;22.60;71.21;101241.19;5049746;28;20397;-72
2023/10/03 09:45:47;;;;;;;0.10;0.10;;;;;;;21.57;74.71;101255.44;5049866;28;20035;-71
2023/10/03 09:48:14;;;;;;;0.00;0.00;;;;;;;21.75;74.66;101251.16;5050073;28;20136;-71
2023/10/03 09:50:53;;;;;;;0.10;0.10;;;;;;;21.51;73.71;101255.78;5049808;28;20094;-72
2023/10/03 09:53:19;;;;;;;0.10;0.10;;;;;;;21.70;74.06;101249.28;5049864;28;20516;-72
2023/10/03 09:55:49;;;;;;;0.08;0.08;;;;;;;20.92;75.30;101278.63;5050016;28;20051;-71
2023/10/03 09:58:21;;;;;;;0.10;0.10;;;;;;;20.41;78.12;101290.91;5061887;28;20079;-70
2023/10/03 10:00:53;;;;;;;0.10;0.10;;;;;;;20.53;76.54;101301.50;5069772;28;20048;-71
2023/10/03 10:03:26;;;;;;;0.10;0.10;;;;;;;20.59;76.31;101303.13;5070212;28;20025;-72
2023/10/03 10:06:14;;;;;;;0.20;0.20;;;;;;;20.70;76.18;101294.59;5069214;28;20028;-72
2023/10/03 10:08:58;;;;;;;0.10;0.10;;;;;;;20.88;74.92;101299.41;5047800;28;20102;-73
2023/10/03 10:11:26;;;;;;;0.15;0.15;;;;;;;21.18;74.07;101316.75;5049361;28;20120;-71
2023/10/03 10:14:10;;;;;;;0.10;0.10;;;;;;;21.08;74.20;101320.38;5031518;28;20547;-70
2023/10/03 10:17:05;;;;;;;0.10;0.10;;;;;;;21.57;73.57;101328.47;5049472;28;20456;-71
2023/10/03 10:20:09;;;;;;;0.10;0.10;;;;;;;21.63;73.13;101327.34;4948890;28;20038;-72
2023/10/03 10:22:58;;;;;;;0.10;0.10;;;;;;;20.85;74.80;101343.66;4910575;29;20036;-72
2023/10/03 10:25:27;;;;;;;0.10;0.10;;;;;;;20.32;77.59;101351.81;4910291;29;20055;-72
2023/10/03 10:28:06;;;;;;;0.10;0.10;;;;;;;21.53;73.23;101346.56;4910308;29;20043;-72
2023/10/03 10:30:32;;;;;;;0.10;0.10;;;;;;;21.07;75.41;101359.72;4910412;29;20064;-69
2023/10/03 10:33:20;;;;;;;0.20;0.20;;;;;;;20.95;76.56;101365.47;4911003;29;20135;-70
2023/10/03 10:36:07;;;;;;;0.10;0.10;;;;;;;21.07;76.55;101375.31;4913800;29;20079;-72
2023/10/03 10:38:32;;;;;;;0.10;0.10;;;;;;;21.79;72.83;101378.91;4913945;29;20174;-72
2023/10/03 10:41:31;;;;;;;0.20;0.20;;;;;;;20.84;77.80;101374.84;4914091;29;20145;-70
2023/10/03 10:44:06;;;;;;;0.10;0.10;;;;;;;20.75;78.61;101386.63;4913817;29;20063;-71
2023/10/03 10:46:39;;;;;;;0.10;0.10;;;;;;;20.13;76.16;101387.03;4913259;29;20032;-69
2023/10/03 10:49:31;;;;;;;0.20;0.20;;;;;;;20.73;75.73;101373.25;4913723;29;20176;-71
2023/10/03 10:51:57;;;;;;;0.10;0.10;;;;;;;20.55;75.44;101373.88;4857480;29;20040;-71
2023/10/03 10:54:24;;;;;;;0.20;0.20;;;;;;;21.55;72.58;101375.28;4873746;29;20090;-71
2023/10/03 10:57:01;;;;;;;0.10;0.10;;;;;;;21.12;73.01;101391.66;4892391;29;20040;-72
2023/10/03 10:59:27;;;;;;;0.10;0.10;;;;;;;20.79;74.71;101390.44;4942451;28;20031;-70
2023/10/03 11:01:53;;;;;;;0.10;0.10;;;;;;;20.71;74.38;101385.56;4972458;28;20078;-71
2023/10/03 11:04:23;;;;;;;0.10;0.10;;;;;;;21.17;74.52;101395.19;4990387;28;20129;-73
2023/10/03 11:06:55;;;;;;;0.10;0.10;;;;;;;21.51;70.23;101403.47;4951664;28;20553;-72
2023/10/03 11:09:20;;;;;;;0.20;0.20;;;;;;;20.94;72.67;101404.84;4952022;28;20070;-73
2023/10/03 11:11:47;;;;;;;0.10;0.10;;;;;;;19.93;76.51;101408.88;4957708;28;20046;-70
2023/10/03 11:14:33;;;;;;;0.10;0.10;;;;;;;19.63;79.84;101412.41;4970873;28;20043;-72
2023/10/03 11:17:02;;;;;;;0.10;0.10;;;;;;;21.18;74.37;101412.41;4970805;28;20509;-72
2023/10/03 11:19:31;;;;;;;0.10;0.10;;;;;;;20.47;75.97;101425.47;4970941;28;20701;-72
2023/10/03 11:21:56;;;;;;;0.10;0.10;;;;;;;19.96;77.92;101433.72;4970936;28;20035;-73
2023/10/03 11:24:23;;;;;;;0.20;0.20;;;;;;;19.92;76.25;101438.06;4971639;28;20045;-71
2023/10/03 11:26:53;;;;;;;0.10;0.10;;;;;;;20.85;74.50;101433.84;4970529;28;20495;-71
2023/10/03 11:29:46;;;;;;;0.13;0.13;;;;;;;20.75;73.35;101450.28;5023564;28;20110;-72
2023/10/03 11:32:32;;;;;;;0.20;0.20;;;;;;;20.37;75.64;101450.06;5052069;28;20041;-71